createdAt,value
2023-04-02T00:00:10.542Z,76.17
2023-04-02T00:03:15.464Z,77.51
2023-04-02T00:06:30.275Z,79.04
2023-04-02T00:09:36.376Z,79.92
2023-04-02T00:12:38.612Z,80.52
2023-04-02T00:15:47.330Z,80.85
2023-04-02T00:18:53.553Z,80.90
2023-04-02T00:21:57.340Z,79.68
2023-04-02T00:25:02.718Z,78.48
2023-04-02T00:28:04.935Z,78.06
2023-04-02T00:31:10.698Z,78.08
2023-04-02T00:34:23.905Z,77.58
2023-04-02T00:37:29.513Z,77.72
2023-04-02T00:40:31.965Z,77.44
2023-04-02T00:43:39.734Z,77.02
2023-04-02T00:46:47.321Z,77.50
2023-04-02T00:49:57.044Z,76.98
2023-04-02T00:53:04.061Z,76.64
2023-04-02T00:56:16.755Z,76.74
2023-04-02T00:59:29.402Z,76.50
2023-04-02T01:02:34.058Z,76.14
2023-04-02T01:05:36.405Z,76.26
2023-04-02T01:09:03.659Z,75.84
2023-04-02T01:12:30.901Z,75.95
2023-04-02T01:15:50.388Z,76.60
2023-04-02T01:19:02.008Z,76.75
2023-04-02T01:22:22.770Z,77.68
2023-04-02T01:26:04.770Z,77.31
2023-04-02T01:29:15.038Z,76.91
2023-04-02T01:32:20.706Z,77.96
2023-04-02T01:35:25.158Z,78.82
2023-04-02T01:38:34.519Z,80.47
2023-04-02T01:41:49.908Z,81.29
2023-04-02T01:45:02.740Z,81.59
2023-04-02T01:48:17.565Z,82.27
2023-04-02T01:51:34.406Z,81.34
2023-04-02T01:54:41.359Z,80.49
2023-04-02T01:57:48.775Z,78.25
2023-04-02T02:01:16.584Z,76.36
2023-04-02T02:04:19.605Z,76.31
2023-04-02T02:07:21.952Z,76.49
2023-04-02T02:10:34.632Z,75.61
2023-04-02T02:13:36.794Z,74.71
2023-04-02T02:16:42.137Z,74.86
2023-04-02T02:19:47.472Z,75.10
2023-04-02T02:22:51.690Z,75.89
2023-04-02T02:25:54.382Z,76.42
2023-04-02T02:28:58.333Z,76.92
2023-04-02T02:32:03.095Z,77.50
2023-04-02T02:35:16.120Z,78.02
2023-04-02T02:38:34.295Z,78.16
2023-04-02T02:41:54.940Z,78.49
2023-04-02T02:44:58.815Z,78.81
2023-04-02T02:48:02.306Z,79.47
2023-04-02T02:51:10.197Z,80.35
2023-04-02T02:54:14.077Z,80.33
2023-04-02T02:57:21.950Z,79.78
2023-04-02T03:00:26.470Z,79.38
2023-04-02T03:03:34.368Z,79.45
2023-04-02T03:06:40.205Z,78.85
2023-04-02T03:09:55.890Z,78.46
2023-04-02T03:13:10.773Z,77.76
2023-04-02T03:16:16.223Z,77.89
2023-04-02T03:19:29.430Z,77.72
2023-04-02T03:22:37.777Z,78.73
2023-04-02T03:25:49.365Z,78.08
2023-04-02T03:29:01.814Z,78.65
2023-04-02T03:32:12.302Z,78.65
2023-04-02T03:35:30.512Z,78.85
2023-04-02T03:38:36.888Z,78.92
2023-04-02T03:41:45.413Z,79.69
2023-04-02T03:45:07.892Z,79.11
2023-04-02T03:48:39.295Z,79.17
2023-04-02T03:51:55.883Z,78.19
2023-04-02T03:55:01.934Z,79.09
2023-04-02T03:58:25.781Z,78.65
2023-04-02T04:01:35.132Z,76.26
2023-04-02T04:04:42.003Z,74.58
2023-04-02T04:07:44.961Z,75.20
2023-04-02T04:10:51.943Z,75.07
2023-04-02T04:14:10.350Z,74.80
2023-04-02T04:17:24.836Z,74.92
2023-04-02T04:20:41.564Z,73.97
2023-04-02T04:23:50.551Z,73.71
2023-04-02T04:27:17.199Z,74.88
2023-04-02T04:30:43.895Z,74.47
2023-04-02T04:33:50.706Z,74.28
2023-04-02T04:37:07.603Z,76.25
2023-04-02T04:40:24.510Z,76.19
2023-04-02T04:43:37.972Z,77.00
2023-04-02T04:46:53.053Z,76.88
2023-04-02T04:50:04.550Z,78.54
2023-04-02T04:53:45.531Z,77.49
2023-04-02T04:56:51.793Z,76.98
2023-04-02T05:00:07.632Z,76.51
2023-04-02T05:03:42.752Z,76.26
2023-04-02T05:06:53.892Z,75.71
2023-04-02T05:10:14.387Z,75.63
2023-04-02T05:13:31.692Z,75.09
2023-04-02T05:16:51.784Z,76.12
2023-04-02T05:20:09.853Z,75.67
2023-04-02T05:23:18.149Z,75.15
2023-04-02T05:26:33.454Z,74.74
2023-04-02T05:29:44.170Z,74.75
2023-04-02T05:32:56.419Z,74.37
2023-04-02T05:36:09.414Z,75.24
2023-04-02T05:39:22.635Z,73.82
2023-04-02T05:42:32.536Z,73.67
2023-04-02T05:45:43.666Z,73.05
2023-04-02T05:48:51.831Z,72.32
2023-04-02T05:51:58.705Z,73.45
2023-04-02T05:55:12.585Z,75.32
2023-04-02T05:58:35.358Z,75.48
2023-04-02T06:01:56.172Z,75.34
2023-04-02T06:05:12.600Z,77.11
2023-04-02T06:08:25.658Z,78.82
2023-04-02T06:11:32.921Z,78.93
2023-04-02T06:14:37.310Z,78.96
2023-04-02T06:17:59.342Z,79.60
2023-04-02T06:21:03.197Z,79.53
2023-04-02T06:24:09.449Z,79.05
2023-04-02T06:27:18.874Z,79.68
2023-04-02T06:30:31.476Z,78.92
2023-04-02T06:33:33.443Z,75.67
2023-04-02T06:36:35.455Z,75.12
2023-04-02T06:39:42.216Z,74.62
2023-04-02T06:42:46.668Z,73.51
2023-04-02T06:46:21.937Z,73.71
2023-04-02T06:49:46.299Z,73.02
2023-04-02T06:53:21.575Z,72.39
2023-04-02T06:56:42.356Z,73.34
2023-04-02T06:59:45.842Z,74.29
2023-04-02T07:02:55.118Z,73.16
2023-04-02T07:06:00.346Z,73.01
2023-04-02T07:09:04.694Z,74.61
2023-04-02T07:12:14.744Z,74.33
2023-04-02T07:15:23.965Z,72.30
2023-04-02T07:18:31.190Z,72.71
2023-04-02T07:21:35.079Z,72.32
2023-04-02T07:24:37.564Z,72.42
2023-04-02T07:27:39.399Z,73.51
2023-04-02T07:30:41.572Z,73.06
2023-04-02T07:33:43.654Z,73.83
2023-04-02T07:36:45.565Z,74.77
2023-04-02T07:39:47.489Z,75.31
2023-04-02T07:42:49.749Z,77.08
2023-04-02T07:45:51.778Z,78.65
2023-04-02T07:48:53.730Z,78.90
2023-04-02T07:51:55.610Z,78.30
2023-04-02T07:54:59.885Z,77.64
2023-04-02T07:58:01.914Z,79.10
2023-04-02T08:01:04.476Z,78.47
2023-04-02T08:04:07.888Z,77.85
2023-04-02T08:07:09.819Z,76.12
2023-04-02T08:10:12.482Z,73.45
2023-04-02T08:13:14.964Z,74.35
2023-04-02T08:16:16.998Z,75.62
2023-04-02T08:19:19.595Z,74.39
2023-04-02T08:22:21.401Z,71.69
2023-04-02T08:25:23.239Z,73.64
2023-04-02T08:28:25.358Z,75.46
2023-04-02T08:31:27.594Z,78.90
2023-04-02T08:34:29.533Z,80.19
2023-04-02T08:37:31.658Z,81.04
2023-04-02T08:40:38.068Z,80.87
2023-04-02T08:43:40.799Z,79.98
2023-04-02T08:46:53.937Z,80.82
2023-04-02T08:50:06.498Z,82.11
2023-04-02T08:53:19.493Z,81.87
2023-04-02T08:56:37.034Z,79.74
2023-04-02T08:59:41.900Z,78.85
2023-04-02T09:02:52.501Z,78.70
2023-04-02T09:05:55.509Z,76.84
2023-04-02T09:08:58.942Z,74.30
2023-04-02T09:12:06.786Z,75.15
2023-04-02T09:15:41.494Z,72.79
2023-04-02T09:18:45.500Z,71.78
2023-04-02T09:21:57.118Z,69.38
2023-04-02T09:25:02.225Z,68.95
2023-04-02T09:28:05.172Z,66.99
2023-04-02T09:31:22.266Z,63.52
2023-04-02T09:34:35.069Z,64.56
2023-04-02T09:37:37.404Z,64.40
2023-04-02T09:41:02.251Z,64.62
2023-04-02T09:44:31.096Z,63.38
2023-04-02T09:47:33.035Z,62.21
2023-04-02T09:50:35.381Z,66.04
2023-04-02T09:53:42.426Z,65.35
2023-04-02T09:57:02.724Z,61.54
2023-04-02T10:00:29.783Z,61.76
2023-04-02T10:03:35.896Z,58.00
2023-04-02T10:06:49.697Z,61.33
2023-04-02T10:09:58.917Z,60.48
2023-04-02T10:13:09.259Z,62.70
2023-04-02T10:16:33.028Z,59.52
2023-04-02T10:19:39.296Z,59.54
2023-04-02T10:22:42.097Z,58.84
2023-04-02T10:25:57.645Z,60.43
2023-04-02T10:29:09.477Z,59.28
2023-04-02T10:32:44.345Z,58.93
2023-04-02T10:36:02.450Z,67.59
2023-04-02T10:39:16.089Z,71.32
2023-04-02T10:42:35.375Z,70.50
2023-04-02T10:46:00.512Z,72.03
2023-04-02T10:49:22.122Z,71.21
2023-04-02T10:52:31.003Z,68.47
2023-04-02T10:55:43.158Z,70.95
2023-04-02T10:58:59.100Z,70.51
2023-04-02T11:02:23.439Z,69.25
2023-04-02T11:05:30.369Z,69.28
2023-04-02T11:08:45.928Z,66.95
2023-04-02T11:11:52.870Z,67.48
2023-04-02T11:14:56.552Z,67.75
2023-04-02T11:17:58.669Z,68.54
2023-04-02T11:21:03.508Z,67.88
2023-04-02T11:24:06.322Z,65.60
2023-04-02T11:27:11.377Z,65.49
2023-04-02T11:30:16.020Z,65.28
2023-04-02T11:33:44.787Z,64.35
2023-04-02T11:36:51.046Z,63.67
2023-04-02T11:40:12.857Z,63.34
2023-04-02T11:43:35.365Z,62.49
2023-04-02T11:46:42.172Z,64.42
2023-04-02T11:50:00.428Z,63.40
2023-04-02T11:53:36.163Z,63.78
2023-04-02T11:56:52.520Z,61.63
2023-04-02T12:00:21.005Z,63.88
2023-04-02T12:03:38.579Z,60.21
2023-04-02T12:06:47.164Z,60.86
2023-04-02T12:10:17.150Z,58.61
2023-04-02T12:13:39.541Z,58.16
2023-04-02T12:16:41.506Z,57.08
2023-04-02T12:19:49.096Z,59.10
2023-04-02T12:22:54.477Z,56.21
2023-04-02T12:25:58.630Z,56.54
2023-04-02T12:29:23.139Z,56.71
2023-04-02T12:32:29.799Z,57.13
2023-04-02T12:35:36.534Z,56.42
2023-04-02T12:38:47.847Z,54.87
2023-04-02T12:41:49.801Z,56.14
2023-04-02T12:44:51.708Z,58.99
2023-04-02T12:47:53.869Z,52.31
2023-04-02T12:50:57.107Z,52.38
2023-04-02T12:53:59.642Z,51.89
2023-04-02T12:57:30.990Z,48.70
2023-04-02T13:00:33.804Z,52.00
2023-04-02T13:03:36.168Z,50.85
2023-04-02T13:06:40.962Z,49.21
2023-04-02T13:09:47.660Z,49.95
2023-04-02T13:12:55.970Z,49.10
2023-04-02T13:16:04.877Z,53.47
2023-04-02T13:19:17.349Z,53.24
2023-04-02T13:22:32.067Z,56.02
2023-04-02T13:25:36.761Z,57.77
2023-04-02T13:28:39.282Z,60.07
2023-04-02T13:31:41.706Z,60.04
2023-04-02T13:34:43.688Z,64.62
2023-04-02T13:37:45.691Z,64.93
2023-04-02T13:40:48.027Z,64.99
2023-04-02T13:43:51.331Z,65.16
2023-04-02T13:46:54.525Z,63.93
2023-04-02T13:49:56.514Z,65.43
2023-04-02T13:53:04.590Z,62.67
2023-04-02T13:56:08.487Z,60.59
2023-04-02T13:59:10.929Z,61.01
2023-04-02T14:02:17.330Z,64.08
2023-04-02T14:05:32.530Z,62.58
2023-04-02T14:09:02.179Z,64.92
2023-04-02T14:12:31.590Z,64.28
2023-04-02T14:15:58.883Z,67.35
2023-04-02T14:19:21.306Z,69.17
2023-04-02T14:22:46.368Z,70.29
2023-04-02T14:26:18.843Z,71.18
2023-04-02T14:29:26.989Z,69.63
2023-04-02T14:32:44.711Z,68.95
2023-04-02T14:36:03.489Z,69.70
2023-04-02T14:39:23.017Z,67.82
2023-04-02T14:42:43.023Z,69.98
2023-04-02T14:46:03.235Z,67.70
2023-04-02T14:49:25.094Z,67.97
2023-04-02T14:52:31.676Z,69.63
2023-04-02T14:55:42.539Z,73.18
2023-04-02T14:58:48.920Z,74.30
2023-04-02T15:01:57.235Z,77.23
2023-04-02T15:05:19.529Z,77.30
2023-04-02T15:08:26.582Z,75.80
2023-04-02T15:11:38.444Z,74.90
2023-04-02T15:14:48.680Z,75.47
2023-04-02T15:17:50.661Z,76.68
2023-04-02T15:21:18.222Z,78.19
2023-04-02T15:24:34.256Z,78.65
2023-04-02T15:27:57.222Z,80.31
2023-04-02T15:31:07.296Z,81.49
2023-04-02T15:34:20.213Z,81.57
2023-04-02T15:37:50.093Z,81.42
2023-04-02T15:41:04.656Z,80.73
2023-04-02T15:44:16.906Z,79.70
2023-04-02T15:47:36.695Z,77.81
2023-04-02T15:51:01.509Z,78.18
2023-04-02T15:54:16.467Z,78.26
2023-04-02T15:57:42.694Z,79.13
2023-04-02T16:01:05.336Z,80.75
2023-04-02T16:04:52.845Z,82.08
2023-04-02T16:07:54.590Z,83.33
2023-04-02T16:10:56.754Z,83.78
2023-04-02T16:14:09.137Z,83.22
2023-04-02T16:17:24.925Z,83.99
2023-04-02T16:20:52.003Z,83.60
2023-04-02T16:23:54.007Z,82.70
2023-04-02T16:27:14.828Z,81.62
2023-04-02T16:30:44.467Z,79.87
2023-04-02T16:34:24.470Z,78.42
2023-04-02T16:37:38.507Z,76.94
2023-04-02T16:41:04.768Z,76.93
2023-04-02T16:44:22.511Z,76.81
2023-04-02T16:47:51.740Z,77.44
2023-04-02T16:51:21.533Z,76.59
2023-04-02T16:55:12.470Z,77.40
2023-04-02T16:58:14.532Z,77.39
2023-04-02T17:01:29.846Z,76.89
2023-04-02T17:04:53.694Z,78.04
2023-04-02T17:08:10.714Z,78.60
2023-04-02T17:11:24.034Z,78.48
2023-04-02T17:14:43.415Z,78.87
2023-04-02T17:17:45.588Z,79.03
2023-04-02T17:20:48.237Z,79.40
2023-04-02T17:23:56.611Z,79.41
2023-04-02T17:27:05.775Z,79.71
2023-04-02T17:30:23.729Z,80.48
2023-04-02T17:33:28.483Z,79.73
2023-04-02T17:36:51.927Z,79.46
2023-04-02T17:40:21.312Z,79.70
2023-04-02T17:43:38.582Z,79.15
2023-04-02T17:47:08.459Z,79.64
2023-04-02T17:50:35.376Z,77.97
2023-04-02T17:53:57.090Z,78.98
2023-04-02T17:57:07.864Z,79.28
2023-04-02T18:00:22.053Z,79.27
2023-04-02T18:03:49.240Z,79.31
2023-04-02T18:07:00.362Z,78.70
2023-04-02T18:10:34.587Z,78.65
2023-04-02T18:13:40.255Z,78.90
2023-04-02T18:17:20.602Z,79.23
2023-04-02T18:20:35.533Z,78.94
2023-04-02T18:23:47.236Z,78.63
2023-04-02T18:26:55.247Z,79.07
2023-04-02T18:30:26.893Z,79.38
2023-04-02T18:33:57.590Z,79.51
2023-04-02T18:37:15.314Z,79.01
2023-04-02T18:40:38.648Z,78.46
2023-04-02T18:44:01.564Z,79.26
2023-04-02T18:47:31.771Z,79.48
2023-04-02T18:50:37.089Z,79.65
2023-04-02T18:53:41.471Z,79.30
2023-04-02T18:56:43.941Z,79.90
2023-04-02T19:00:25.751Z,78.51
2023-04-02T19:03:50.379Z,79.33
2023-04-02T19:07:02.993Z,77.93
2023-04-02T19:10:21.510Z,78.59
2023-04-02T19:13:23.935Z,78.88
2023-04-02T19:16:37.473Z,77.22
2023-04-02T19:20:04.468Z,79.12
2023-04-02T19:23:30.155Z,78.15
2023-04-02T19:27:03.925Z,80.25
2023-04-02T19:30:24.667Z,80.11
2023-04-02T19:33:42.579Z,80.00
2023-04-02T19:36:51.478Z,79.81
2023-04-02T19:40:08.862Z,80.11
2023-04-02T19:43:11.633Z,80.06
2023-04-02T19:46:14.160Z,80.27
2023-04-02T19:49:28.422Z,79.89
2023-04-02T19:52:30.858Z,79.73
2023-04-02T19:55:34.717Z,79.12
2023-04-02T19:58:37.251Z,78.95
2023-04-02T20:01:39.667Z,77.86
2023-04-02T20:04:42.542Z,77.33
2023-04-02T20:07:44.863Z,78.14
2023-04-02T20:10:47.675Z,77.43
2023-04-02T20:13:50.565Z,77.09
2023-04-02T20:16:52.833Z,77.15
2023-04-02T20:19:55.115Z,76.33
2023-04-02T20:22:57.287Z,76.17
2023-04-02T20:25:59.478Z,76.25
2023-04-02T20:29:02.046Z,75.45
2023-04-02T20:32:04.233Z,75.87
2023-04-02T20:35:06.907Z,75.58
2023-04-02T20:38:09.109Z,75.94
2023-04-02T20:41:11.248Z,75.82
2023-04-02T20:44:14.012Z,76.39
2023-04-02T20:47:16.381Z,75.63
2023-04-02T20:50:18.392Z,74.95
2023-04-02T20:53:20.944Z,74.74
2023-04-02T20:56:26.746Z,76.16
2023-04-02T20:59:28.799Z,74.74
2023-04-02T21:02:32.220Z,75.43
2023-04-02T21:05:34.180Z,74.94
2023-04-02T21:08:37.036Z,74.44
2023-04-02T21:11:39.606Z,74.33
2023-04-02T21:14:41.518Z,73.55
2023-04-02T21:17:43.514Z,72.91
2023-04-02T21:20:45.475Z,73.52
2023-04-02T21:23:47.760Z,72.99
2023-04-02T21:26:50.422Z,72.06
2023-04-02T21:29:52.684Z,72.55
2023-04-02T21:32:54.727Z,72.86
2023-04-02T21:35:56.867Z,72.71
2023-04-02T21:39:01.378Z,73.25
2023-04-02T21:42:03.822Z,72.77
2023-04-02T21:45:06.478Z,72.03
2023-04-02T21:48:08.393Z,73.20
2023-04-02T21:51:18.159Z,72.63
2023-04-02T21:54:20.181Z,72.65
2023-04-02T21:57:22.052Z,72.17
2023-04-02T22:00:26.532Z,71.73
2023-04-02T22:03:31.943Z,71.37
2023-04-02T22:06:39.412Z,71.81
2023-04-02T22:09:41.338Z,71.79
2023-04-02T22:12:43.266Z,71.63
2023-04-02T22:15:45.098Z,71.34
2023-04-02T22:18:48.782Z,71.24
2023-04-02T22:21:50.764Z,70.19
2023-04-02T22:24:52.772Z,70.14
2023-04-02T22:27:54.617Z,69.98
2023-04-02T22:31:15.636Z,70.29
2023-04-02T22:34:17.756Z,70.10
2023-04-02T22:37:19.650Z,70.36
2023-04-02T22:40:21.685Z,70.66
2023-04-02T22:43:23.652Z,70.62
2023-04-02T22:46:26.819Z,69.40
2023-04-02T22:49:28.847Z,70.31
2023-04-02T22:52:30.782Z,70.78
2023-04-02T22:55:32.711Z,69.83
2023-04-02T22:58:35.692Z,69.43
2023-04-02T23:01:37.778Z,69.32
2023-04-02T23:04:40.454Z,68.21
2023-04-02T23:07:42.337Z,68.11
2023-04-02T23:10:44.229Z,67.36
2023-04-02T23:13:48.979Z,66.48
2023-04-02T23:16:50.879Z,66.32
2023-04-02T23:19:52.847Z,65.84
2023-04-02T23:22:54.728Z,66.61
2023-04-02T23:26:11.976Z,65.92
2023-04-02T23:29:14.294Z,67.19
2023-04-02T23:32:17.039Z,67.50
2023-04-02T23:35:18.935Z,66.53
2023-04-02T23:38:20.947Z,66.45
2023-04-02T23:41:24.908Z,66.90
2023-04-02T23:44:27.099Z,67.67
2023-04-02T23:47:28.948Z,66.97
2023-04-02T23:50:30.958Z,67.53
2023-04-02T23:53:34.526Z,67.27
2023-04-02T23:56:37.210Z,67.10
2023-04-02T23:59:40.301Z,67.88
